SCAY weather

Ayacara Airport
Ayacara, Los Lagos Region, Chile

Public forecast

Using degrees Celsius for public forecast. Weather courtesy of forecast.io.

Closest aviation weather report (METAR) to Ayacara Airport

Closest report is Chaitén Airport, 37.6 nm (69.6 km) S. Retrieved 2019/10/21 18:00 UTC (44 minutes ago):

SCTN 211800Z 21009KT 9999 FEW030 SCT060 12/05 Q1028

Closest aviation forecast (TAF) to Ayacara Airport

Forecast is more than 12 hours old.

Closest forecast is Chaitén Airport, 37.6 nm (69.6 km) S. Retrieved 2018/09/16 12:33 UTC (1 year ago):

TAF SPJL 161124Z 1612/1712 VRB04KT 9999 FEW020LVA0551 161131 GG KWBCYMYX MPZZMAMX 161130 SCSCYZYX SPCH03 SCTN 161130 SPECI SCTN 161130Z 36020G31KT +RA SCT013 OVC017 11/09 Q1009